createdAt,value
2022-09-13T00:01:41.600Z,3.20
2022-09-13T00:03:44.930Z,5.13
2022-09-13T00:05:48.357Z,5.00
2022-09-13T00:07:51.922Z,4.70
2022-09-13T00:09:55.577Z,4.77
2022-09-13T00:11:59.211Z,5.00
2022-09-13T00:14:02.711Z,4.80
2022-09-13T00:16:13.033Z,4.53
2022-09-13T00:18:16.639Z,4.93
2022-09-13T00:20:20.231Z,5.60
2022-09-13T00:22:23.485Z,5.27
2022-09-13T00:24:26.725Z,4.60
2022-09-13T00:26:30.355Z,5.20
2022-09-13T00:28:33.638Z,4.80
2022-09-13T00:30:36.985Z,3.93
2022-09-13T00:32:41.862Z,4.60
2022-09-13T00:34:45.130Z,4.70
2022-09-13T00:36:48.917Z,4.33
2022-09-13T00:38:52.095Z,5.47
2022-09-13T00:40:55.284Z,4.83
2022-09-13T00:42:58.785Z,5.63
2022-09-13T00:45:03.794Z,5.70
2022-09-13T00:47:07.244Z,5.40
2022-09-13T00:49:18.683Z,5.53
2022-09-13T00:51:22.184Z,6.27
2022-09-13T00:53:30.321Z,5.43
2022-09-13T00:55:39.243Z,5.83
2022-09-13T00:57:44.479Z,8.43
2022-09-13T00:59:54.328Z,5.60
2022-09-13T01:01:59.262Z,6.10
2022-09-13T01:04:04.125Z,5.17
2022-09-13T01:06:12.544Z,6.70
2022-09-13T01:08:23.144Z,5.93
2022-09-13T01:10:27.613Z,6.07
2022-09-13T01:12:36.632Z,5.57
2022-09-13T01:14:40.696Z,5.57
2022-09-13T01:16:47.744Z,6.07
2022-09-13T01:18:51.524Z,4.40
2022-09-13T01:21:10.123Z,4.20
2022-09-13T01:23:53.636Z,4.47
2022-09-13T01:26:38.622Z,5.27
2022-09-13T01:29:04.039Z,4.40
2022-09-13T01:31:13.544Z,4.60
2022-09-13T01:33:39.441Z,4.87
2022-09-13T01:35:57.253Z,5.57
2022-09-13T01:38:10.644Z,4.83
2022-09-13T01:40:27.503Z,4.57
2022-09-13T01:42:43.471Z,4.97
2022-09-13T01:45:01.421Z,5.70
2022-09-13T01:47:17.974Z,5.77
2022-09-13T01:49:22.137Z,5.23
2022-09-13T01:51:29.830Z,5.27
2022-09-13T01:53:43.744Z,5.63
2022-09-13T01:55:52.232Z,4.60
2022-09-13T01:58:02.477Z,5.23
2022-09-13T02:00:08.845Z,5.77
2022-09-13T02:02:19.452Z,5.30
2022-09-13T02:04:26.511Z,4.90
2022-09-13T02:06:34.424Z,5.03
2022-09-13T02:08:40.744Z,4.40
2022-09-13T02:10:47.846Z,4.63
2022-09-13T02:12:53.082Z,5.77
2022-09-13T02:15:04.210Z,5.20
2022-09-13T02:17:10.541Z,5.00
2022-09-13T02:19:19.184Z,5.90
2022-09-13T02:21:27.145Z,6.33
2022-09-13T02:23:38.041Z,5.17
2022-09-13T02:25:42.603Z,5.33
2022-09-13T02:27:49.776Z,5.37
2022-09-13T02:29:57.302Z,5.37
2022-09-13T02:32:06.228Z,5.73
2022-09-13T02:34:16.544Z,4.47
2022-09-13T02:36:22.929Z,5.10
2022-09-13T02:38:31.968Z,6.20
2022-09-13T02:40:40.579Z,4.37
2022-09-13T02:42:48.855Z,5.17
2022-09-13T02:44:54.480Z,4.70
2022-09-13T02:47:07.001Z,5.10
2022-09-13T02:49:14.281Z,5.50
2022-09-13T02:51:20.577Z,6.17
2022-09-13T02:53:31.667Z,5.27
2022-09-13T02:55:44.289Z,6.27
2022-09-13T02:57:58.987Z,4.63
2022-09-13T03:00:02.563Z,4.93
2022-09-13T03:02:08.831Z,6.20
2022-09-13T03:04:14.795Z,6.07
2022-09-13T03:06:25.481Z,5.30
2022-09-13T03:08:29.570Z,5.70
2022-09-13T03:10:42.376Z,6.53
2022-09-13T03:13:09.960Z,5.57
2022-09-13T03:15:18.084Z,5.50
2022-09-13T03:17:38.746Z,5.70
2022-09-13T03:19:46.776Z,6.10
2022-09-13T03:21:58.632Z,4.83
2022-09-13T03:24:06.389Z,5.47
2022-09-13T03:26:36.691Z,6.43
2022-09-13T03:28:48.285Z,5.77
2022-09-13T03:30:56.650Z,5.50
2022-09-13T03:33:06.834Z,6.10
2022-09-13T03:35:19.876Z,6.73
2022-09-13T03:37:29.658Z,5.20
2022-09-13T03:39:40.802Z,6.00
2022-09-13T03:41:48.501Z,6.30
2022-09-13T03:43:55.165Z,5.20
2022-09-13T03:46:00.480Z,5.83
2022-09-13T03:48:05.948Z,5.87
2022-09-13T03:50:11.184Z,6.30
2022-09-13T03:52:14.730Z,5.57
2022-09-13T03:54:22.990Z,7.30
2022-09-13T03:56:26.991Z,5.50
2022-09-13T03:58:30.651Z,6.17
2022-09-13T04:00:34.159Z,6.53
2022-09-13T04:02:37.333Z,6.67
2022-09-13T04:04:41.507Z,5.50
2022-09-13T04:06:44.964Z,5.43
2022-09-13T04:08:48.412Z,6.40
2022-09-13T04:10:53.195Z,5.17
2022-09-13T04:12:57.073Z,6.70
2022-09-13T04:15:00.841Z,5.90
2022-09-13T04:17:03.984Z,6.00
2022-09-13T04:19:07.511Z,6.10
2022-09-13T04:21:11.172Z,5.90
2022-09-13T04:23:14.410Z,5.83
2022-09-13T04:25:17.807Z,6.30
2022-09-13T04:27:22.889Z,9.27
2022-09-13T04:29:27.232Z,9.47
2022-09-13T04:31:30.617Z,13.73
2022-09-13T04:33:33.932Z,15.03
2022-09-13T04:35:37.427Z,9.03
2022-09-13T04:37:40.782Z,9.93
2022-09-13T04:39:44.169Z,10.50
2022-09-13T04:41:48.491Z,10.43
2022-09-13T04:43:53.100Z,10.33
2022-09-13T04:45:56.408Z,10.50
2022-09-13T04:48:00.152Z,9.00
2022-09-13T04:50:03.385Z,8.77
2022-09-13T04:52:06.720Z,7.53
2022-09-13T04:54:15.148Z,6.80
2022-09-13T04:56:19.772Z,7.90
2022-09-13T04:58:23.146Z,7.77
2022-09-13T05:00:28.281Z,7.87
2022-09-13T05:02:31.576Z,6.60
2022-09-13T05:04:34.860Z,7.00
2022-09-13T05:06:38.372Z,7.80
2022-09-13T05:08:42.155Z,6.57
2022-09-13T05:10:48.562Z,6.40
2022-09-13T05:12:51.960Z,6.93
2022-09-13T05:14:55.152Z,6.70
2022-09-13T05:16:59.936Z,6.73
2022-09-13T05:19:03.569Z,6.97
2022-09-13T05:21:07.111Z,7.27
2022-09-13T05:23:10.353Z,6.83
2022-09-13T05:25:14.065Z,6.97
2022-09-13T05:27:19.340Z,6.60
2022-09-13T05:29:23.141Z,7.73
2022-09-13T05:31:31.403Z,7.40
2022-09-13T05:33:37.772Z,8.10
2022-09-13T05:35:42.597Z,7.77
2022-09-13T05:37:45.820Z,7.87
2022-09-13T05:40:10.148Z,6.67
2022-09-13T05:42:12.679Z,6.80
2022-09-13T05:44:15.915Z,6.60
2022-09-13T05:46:20.957Z,7.10
2022-09-13T05:48:24.496Z,6.50
2022-09-13T05:50:56.855Z,6.67
2022-09-13T05:52:54.260Z,6.50
2022-09-13T05:54:57.525Z,6.10
2022-09-13T05:57:00.972Z,5.70
2022-09-13T05:59:04.200Z,6.53
2022-09-13T06:01:07.787Z,6.07
2022-09-13T06:03:11.220Z,5.40
2022-09-13T06:05:14.676Z,5.37
2022-09-13T06:07:19.930Z,6.00
2022-09-13T06:09:23.150Z,5.50
2022-09-13T06:11:27.124Z,4.67
2022-09-13T06:13:31.028Z,5.10
2022-09-13T06:15:34.535Z,4.80
2022-09-13T06:17:37.741Z,4.40
2022-09-13T06:19:41.198Z,4.27
2022-09-13T06:21:44.430Z,3.67
2022-09-13T06:23:51.169Z,4.57
2022-09-13T06:26:01.744Z,4.70
2022-09-13T06:28:05.153Z,4.70
2022-09-13T06:30:12.078Z,4.30
2022-09-13T06:32:15.317Z,4.70
2022-09-13T06:34:18.512Z,4.53
2022-09-13T06:36:21.749Z,3.90
2022-09-13T06:38:25.057Z,4.53
2022-09-13T06:40:29.952Z,4.03
2022-09-13T06:42:35.517Z,4.40
2022-09-13T06:44:38.788Z,4.53
2022-09-13T06:46:42.416Z,3.80
2022-09-13T06:48:47.164Z,3.83
2022-09-13T06:50:50.607Z,4.07
2022-09-13T06:52:54.098Z,3.80
2022-09-13T06:54:57.601Z,3.70
2022-09-13T06:57:03.712Z,3.17
2022-09-13T06:59:09.421Z,4.60
2022-09-13T07:01:15.608Z,4.60
2022-09-13T07:03:18.857Z,3.50
2022-09-13T07:05:22.670Z,3.30
2022-09-13T07:07:25.942Z,3.50
2022-09-13T07:09:29.250Z,3.47
2022-09-13T07:11:34.820Z,3.87
2022-09-13T07:13:40.287Z,3.40
2022-09-13T07:15:43.586Z,3.53
2022-09-13T07:17:46.890Z,2.83
2022-09-13T07:19:50.222Z,3.30
2022-09-13T07:21:54.350Z,3.30
2022-09-13T07:23:58.636Z,3.30
2022-09-13T07:26:05.882Z,3.00
2022-09-13T07:28:09.085Z,2.50
2022-09-13T07:30:13.899Z,2.80
2022-09-13T07:32:17.191Z,2.90
2022-09-13T07:34:22.043Z,3.80
2022-09-13T07:36:25.780Z,2.60
2022-09-13T07:38:29.057Z,2.53
2022-09-13T07:40:33.262Z,2.53
2022-09-13T07:42:36.942Z,2.90
2022-09-13T07:44:40.310Z,3.33
2022-09-13T07:46:44.892Z,2.53
2022-09-13T07:48:49.555Z,3.07
2022-09-13T07:50:59.318Z,2.70
2022-09-13T07:53:02.838Z,2.70
2022-09-13T07:55:06.841Z,3.00
2022-09-13T07:57:10.158Z,2.70
2022-09-13T07:59:15.228Z,2.30
2022-09-13T08:01:20.837Z,2.10
2022-09-13T08:03:25.745Z,2.83
2022-09-13T08:05:28.901Z,2.50
2022-09-13T08:07:36.181Z,2.00
2022-09-13T08:09:39.397Z,2.37
2022-09-13T08:11:43.931Z,2.20
2022-09-13T08:13:47.613Z,2.90
2022-09-13T08:15:51.242Z,2.33
2022-09-13T08:17:54.917Z,2.30
2022-09-13T08:19:59.628Z,2.47
2022-09-13T08:22:02.981Z,2.10
2022-09-13T08:24:08.785Z,1.93
2022-09-13T08:26:12.849Z,1.50
2022-09-13T08:28:17.885Z,2.50
2022-09-13T08:30:21.158Z,2.30
2022-09-13T08:32:24.620Z,1.80
2022-09-13T08:34:28.061Z,2.27
2022-09-13T08:36:33.108Z,2.40
2022-09-13T08:38:36.741Z,2.27
2022-09-13T08:40:43.297Z,2.60
2022-09-13T08:42:53.156Z,2.17
2022-09-13T08:44:57.687Z,2.70
2022-09-13T08:47:07.659Z,2.00
2022-09-13T08:49:18.576Z,2.60
2022-09-13T08:51:33.088Z,2.10
2022-09-13T08:53:45.386Z,2.23
2022-09-13T08:55:56.047Z,1.90
2022-09-13T08:58:09.118Z,2.27
2022-09-13T09:00:20.978Z,2.30
2022-09-13T09:02:38.100Z,2.10
2022-09-13T09:04:47.922Z,1.80
2022-09-13T09:06:54.005Z,2.27
2022-09-13T09:09:06.884Z,2.00
2022-09-13T09:11:15.618Z,1.83
2022-09-13T09:13:27.290Z,2.10
2022-09-13T09:15:36.475Z,1.80
2022-09-13T09:17:49.562Z,2.60
2022-09-13T09:20:00.717Z,2.17
2022-09-13T09:22:07.380Z,2.33
2022-09-13T09:24:19.167Z,2.00
2022-09-13T09:26:25.633Z,1.77
2022-09-13T09:28:31.588Z,2.53
2022-09-13T09:30:42.090Z,2.30
2022-09-13T09:33:03.253Z,1.93
2022-09-13T09:35:18.833Z,1.93
2022-09-13T09:37:25.042Z,2.60
2022-09-13T09:39:39.054Z,2.47
2022-09-13T09:41:42.730Z,2.10
2022-09-13T09:43:48.895Z,2.37
2022-09-13T09:45:54.059Z,2.13
2022-09-13T09:48:01.713Z,2.03
2022-09-13T09:50:12.179Z,2.13
2022-09-13T09:52:18.944Z,2.53
2022-09-13T09:54:23.203Z,1.83
2022-09-13T09:56:31.581Z,2.00
2022-09-13T09:58:40.520Z,2.13
2022-09-13T10:00:54.846Z,2.10
2022-09-13T10:03:01.305Z,1.90
2022-09-13T10:05:05.201Z,1.90
2022-09-13T10:07:23.955Z,1.70
2022-09-13T10:09:27.758Z,2.10
2022-09-13T10:11:51.132Z,2.20
2022-09-13T10:14:03.196Z,2.83
2022-09-13T10:16:08.792Z,2.30
2022-09-13T10:18:42.236Z,1.83
2022-09-13T10:20:40.572Z,1.87
2022-09-13T10:22:43.959Z,2.30
2022-09-13T10:24:48.332Z,1.90
2022-09-13T10:26:53.377Z,2.17
2022-09-13T10:29:02.119Z,2.03
2022-09-13T10:31:11.954Z,2.00
2022-09-13T10:33:26.316Z,1.83
2022-09-13T10:35:30.829Z,2.27
2022-09-13T10:37:36.335Z,1.67
2022-09-13T10:39:51.015Z,2.50
2022-09-13T10:42:03.401Z,1.90
2022-09-13T10:44:22.151Z,2.70
2022-09-13T10:46:25.400Z,2.00
2022-09-13T10:48:32.532Z,1.97
2022-09-13T10:50:36.327Z,2.33
2022-09-13T10:52:45.552Z,2.00
2022-09-13T10:54:48.840Z,2.27
2022-09-13T10:56:52.847Z,2.47
2022-09-13T10:59:16.413Z,1.83
2022-09-13T11:01:45.734Z,1.90
2022-09-13T11:04:35.179Z,2.10
2022-09-13T11:06:43.599Z,2.67
2022-09-13T11:08:57.835Z,2.10
2022-09-13T11:11:11.636Z,2.27
2022-09-13T11:13:24.799Z,2.03
2022-09-13T11:15:43.070Z,2.23
2022-09-13T11:17:57.387Z,1.70
2022-09-13T11:20:11.745Z,2.07
2022-09-13T11:22:23.146Z,2.20
2022-09-13T11:24:53.176Z,3.00
2022-09-13T11:27:04.747Z,2.10
2022-09-13T11:29:21.732Z,1.70
2022-09-13T11:31:37.649Z,1.90
2022-09-13T11:33:46.974Z,1.73
2022-09-13T11:36:12.438Z,2.40
2022-09-13T11:38:32.579Z,2.07
2022-09-13T11:40:51.706Z,2.40
2022-09-13T11:43:08.813Z,2.10
2022-09-13T11:45:45.104Z,2.43
2022-09-13T11:48:03.214Z,2.67
2022-09-13T11:50:24.430Z,1.93
2022-09-13T11:52:37.861Z,1.93
2022-09-13T11:54:53.745Z,2.17
2022-09-13T11:57:00.344Z,1.87
2022-09-13T11:59:16.401Z,2.20
2022-09-13T12:01:24.013Z,2.33
2022-09-13T12:03:34.785Z,2.13
2022-09-13T12:05:43.272Z,2.90
2022-09-13T12:07:49.427Z,2.20
2022-09-13T12:10:00.127Z,2.30
2022-09-13T12:12:07.065Z,2.13
2022-09-13T12:14:15.069Z,1.97
2022-09-13T12:16:23.245Z,2.07
2022-09-13T12:18:32.177Z,2.17
2022-09-13T12:20:39.513Z,1.87
2022-09-13T12:22:44.103Z,2.60
2022-09-13T12:24:52.123Z,2.57
2022-09-13T12:27:01.000Z,2.47
2022-09-13T12:29:11.299Z,2.00
2022-09-13T12:31:19.732Z,2.50
2022-09-13T12:33:23.725Z,2.10
2022-09-13T12:35:32.220Z,2.13
2022-09-13T12:37:50.444Z,2.40
2022-09-13T12:40:12.385Z,3.07
2022-09-13T12:42:41.134Z,2.63
2022-09-13T12:44:59.727Z,2.40
2022-09-13T12:47:42.959Z,2.60
2022-09-13T12:50:36.791Z,2.60
2022-09-13T12:52:43.906Z,3.07
2022-09-13T12:55:47.757Z,2.77
2022-09-13T12:57:59.196Z,2.20
2022-09-13T13:00:19.463Z,2.30
2022-09-13T13:02:34.924Z,2.73
2022-09-13T13:04:38.639Z,2.60
2022-09-13T13:06:51.584Z,2.10
2022-09-13T13:08:58.211Z,3.00
2022-09-13T13:11:05.799Z,2.50
2022-09-13T13:13:14.304Z,2.50
2022-09-13T13:15:50.673Z,3.07
2022-09-13T13:17:54.847Z,2.77
2022-09-13T13:19:59.238Z,2.67
2022-09-13T13:22:32.253Z,2.43
2022-09-13T13:24:48.574Z,2.57
2022-09-13T13:26:54.461Z,2.63
2022-09-13T13:29:17.426Z,2.80
2022-09-13T13:31:36.944Z,2.60
2022-09-13T13:33:49.163Z,3.23
2022-09-13T13:35:52.580Z,2.13
2022-09-13T13:37:56.447Z,2.43
2022-09-13T13:40:25.861Z,2.80
2022-09-13T13:42:32.139Z,2.60
2022-09-13T13:44:58.433Z,2.50
2022-09-13T13:47:35.040Z,3.30
2022-09-13T13:49:47.136Z,2.70
2022-09-13T13:52:29.815Z,2.60
2022-09-13T13:55:04.420Z,2.73
2022-09-13T13:57:24.454Z,2.40
2022-09-13T13:59:32.049Z,2.73
2022-09-13T14:01:40.368Z,2.57
2022-09-13T14:04:07.814Z,2.93
2022-09-13T14:06:16.695Z,2.80
2022-09-13T14:08:36.987Z,2.30
2022-09-13T14:10:47.851Z,2.80
2022-09-13T14:13:11.326Z,2.90
2022-09-13T14:15:35.124Z,2.67
2022-09-13T14:18:20.363Z,2.70
2022-09-13T14:20:26.241Z,2.70
2022-09-13T14:22:31.090Z,2.70
2022-09-13T14:24:39.181Z,3.13
2022-09-13T14:26:42.536Z,2.70
2022-09-13T14:28:47.587Z,2.50
2022-09-13T14:30:55.773Z,2.60
2022-09-13T14:33:01.514Z,2.73
2022-09-13T14:35:08.905Z,2.90
2022-09-13T14:37:19.975Z,3.00
2022-09-13T14:39:23.657Z,3.10
2022-09-13T14:41:33.237Z,2.90
2022-09-13T14:43:36.598Z,2.60
2022-09-13T14:45:41.570Z,2.90
2022-09-13T14:47:53.320Z,2.50
2022-09-13T14:50:01.753Z,2.70
2022-09-13T14:52:09.355Z,2.73
2022-09-13T14:54:17.583Z,3.10
2022-09-13T14:56:31.305Z,2.30
2022-09-13T14:58:44.160Z,2.50
2022-09-13T15:00:53.564Z,3.17
2022-09-13T15:03:01.267Z,2.87
2022-09-13T15:05:09.828Z,2.53
2022-09-13T15:07:23.077Z,3.40
2022-09-13T15:09:29.772Z,3.30
2022-09-13T15:11:35.659Z,2.23
2022-09-13T15:13:42.738Z,3.27
2022-09-13T15:15:46.389Z,3.30
2022-09-13T15:17:58.181Z,2.97
2022-09-13T15:20:05.613Z,3.37
2022-09-13T15:22:20.452Z,3.13
2022-09-13T15:24:28.722Z,3.23
2022-09-13T15:26:32.743Z,2.80
2022-09-13T15:28:59.175Z,3.43
2022-09-13T15:31:04.400Z,3.10
2022-09-13T15:33:21.041Z,3.13
2022-09-13T15:35:28.604Z,2.70
2022-09-13T15:37:37.541Z,3.10
2022-09-13T15:39:45.391Z,2.73
2022-09-13T15:41:56.612Z,3.10
2022-09-13T15:44:00.726Z,2.77
2022-09-13T15:46:04.156Z,2.67
2022-09-13T15:48:07.846Z,3.23
2022-09-13T15:50:24.755Z,2.63
2022-09-13T15:52:28.039Z,3.60
2022-09-13T15:54:34.407Z,2.77
2022-09-13T15:56:40.461Z,3.20
2022-09-13T15:58:43.854Z,3.17
2022-09-13T16:00:47.190Z,2.80
2022-09-13T16:02:50.684Z,3.73
2022-09-13T16:04:54.311Z,2.90
2022-09-13T16:06:58.924Z,2.87
2022-09-13T16:09:02.726Z,3.30
2022-09-13T16:11:06.812Z,2.63
2022-09-13T16:13:10.195Z,3.13
2022-09-13T16:15:14.521Z,3.17
2022-09-13T16:17:22.985Z,3.90
2022-09-13T16:19:26.463Z,3.87
2022-09-13T16:21:30.044Z,3.30
2022-09-13T16:23:34.645Z,3.50
2022-09-13T16:25:38.755Z,3.67
2022-09-13T16:27:42.917Z,3.60
2022-09-13T16:29:46.458Z,2.93
2022-09-13T16:31:49.727Z,2.83
2022-09-13T16:33:53.096Z,3.50
2022-09-13T16:35:59.114Z,4.00
2022-09-13T16:38:05.686Z,4.07
2022-09-13T16:40:11.856Z,3.73
2022-09-13T16:42:17.609Z,3.50
2022-09-13T16:44:21.060Z,4.30
2022-09-13T16:46:24.872Z,3.27
2022-09-13T16:48:28.153Z,3.33
2022-09-13T16:50:34.458Z,3.97
2022-09-13T16:52:38.421Z,4.07
2022-09-13T16:54:42.747Z,3.30
2022-09-13T16:56:47.277Z,3.37
2022-09-13T16:58:51.843Z,3.50
2022-09-13T17:00:55.213Z,3.47
2022-09-13T17:02:58.758Z,3.47
2022-09-13T17:05:02.155Z,3.60
2022-09-13T17:07:06.013Z,4.50
2022-09-13T17:09:10.144Z,3.87
2022-09-13T17:11:16.239Z,3.53
2022-09-13T17:13:21.780Z,3.33
2022-09-13T17:15:25.084Z,3.60
2022-09-13T17:17:29.694Z,3.77
2022-09-13T17:19:34.718Z,3.10
2022-09-13T17:21:37.945Z,4.00
2022-09-13T17:23:41.193Z,3.67
2022-09-13T17:25:47.008Z,3.80
2022-09-13T17:27:50.595Z,3.63
2022-09-13T17:29:55.209Z,3.70
2022-09-13T17:31:58.828Z,3.63
2022-09-13T17:34:02.049Z,4.53
2022-09-13T17:36:07.694Z,3.40
2022-09-13T17:38:11.869Z,3.93
2022-09-13T17:40:15.134Z,4.17
2022-09-13T17:42:22.970Z,3.20
2022-09-13T17:44:27.213Z,3.80
2022-09-13T17:46:32.150Z,3.70
2022-09-13T17:48:35.932Z,3.67
2022-09-13T17:50:39.172Z,4.47
2022-09-13T17:52:42.621Z,3.77
2022-09-13T17:54:46.519Z,4.23
2022-09-13T17:56:52.306Z,4.00
2022-09-13T17:58:55.613Z,3.80
2022-09-13T18:01:03.392Z,4.30
2022-09-13T18:03:08.065Z,4.50
2022-09-13T18:05:13.750Z,5.13
2022-09-13T18:07:17.318Z,3.97
2022-09-13T18:09:21.016Z,3.70
2022-09-13T18:11:24.353Z,3.50
2022-09-13T18:13:27.881Z,4.00
2022-09-13T18:15:31.221Z,3.80
2022-09-13T18:17:34.584Z,4.23
2022-09-13T18:19:46.303Z,4.63
2022-09-13T18:21:50.476Z,3.50
2022-09-13T18:23:55.556Z,4.53
2022-09-13T18:26:02.968Z,3.70
2022-09-13T18:28:07.296Z,3.90
2022-09-13T18:30:11.165Z,3.60
2022-09-13T18:32:14.465Z,4.00
2022-09-13T18:34:17.740Z,4.30
2022-09-13T18:36:23.006Z,4.00
2022-09-13T18:38:26.640Z,3.70
2022-09-13T18:40:29.917Z,4.27
2022-09-13T18:42:33.524Z,4.20
2022-09-13T18:44:36.825Z,4.57
2022-09-13T18:46:40.742Z,3.63
2022-09-13T18:48:45.974Z,4.10
2022-09-13T18:50:49.550Z,4.00
2022-09-13T18:52:54.476Z,3.40
2022-09-13T18:54:57.841Z,3.40
2022-09-13T18:57:01.291Z,3.73
2022-09-13T18:59:07.700Z,4.53
2022-09-13T19:01:13.477Z,4.27
2022-09-13T19:03:17.182Z,3.87
2022-09-13T19:05:20.670Z,3.40
2022-09-13T19:07:24.368Z,4.57
2022-09-13T19:09:29.411Z,4.97
2022-09-13T19:11:46.792Z,3.73
2022-09-13T19:13:51.238Z,4.20
2022-09-13T19:15:54.604Z,3.90
2022-09-13T19:17:58.022Z,4.40
2022-09-13T19:20:01.249Z,4.47
2022-09-13T19:22:04.549Z,4.13
2022-09-13T19:24:14.852Z,4.00
2022-09-13T19:26:23.406Z,4.50
2022-09-13T19:28:27.047Z,4.07
2022-09-13T19:30:30.460Z,4.00
2022-09-13T19:32:34.811Z,4.53
2022-09-13T19:34:38.595Z,5.07
2022-09-13T19:36:43.299Z,4.60
2022-09-13T19:38:47.346Z,4.50
2022-09-13T19:40:57.394Z,4.07
2022-09-13T19:43:02.220Z,4.70
2022-09-13T19:45:06.193Z,4.30
2022-09-13T19:48:02.030Z,3.63
2022-09-13T19:49:33.556Z,4.00
2022-09-13T19:51:38.729Z,3.50
2022-09-13T19:53:56.487Z,4.03
2022-09-13T19:56:06.307Z,5.00
2022-09-13T19:58:11.015Z,4.90
2022-09-13T20:00:15.112Z,4.03
2022-09-13T20:02:18.361Z,4.33
2022-09-13T20:04:23.710Z,4.00
2022-09-13T20:06:28.598Z,4.60
2022-09-13T20:08:34.135Z,4.63
2022-09-13T20:10:39.564Z,4.30
2022-09-13T20:12:42.927Z,3.57
2022-09-13T20:14:48.036Z,4.30
2022-09-13T20:16:51.348Z,3.73
2022-09-13T20:18:57.220Z,4.57
2022-09-13T20:21:04.905Z,4.67
2022-09-13T20:23:08.591Z,4.83
2022-09-13T20:25:12.199Z,4.30
2022-09-13T20:27:15.762Z,3.90
2022-09-13T20:29:19.481Z,5.93
2022-09-13T20:31:25.220Z,4.27
2022-09-13T20:33:28.657Z,3.97
2022-09-13T20:35:32.840Z,4.20
2022-09-13T20:37:35.960Z,4.10
2022-09-13T20:39:39.177Z,3.90
2022-09-13T20:41:43.349Z,4.33
2022-09-13T20:43:48.709Z,5.17
2022-09-13T20:45:57.091Z,5.10
2022-09-13T20:48:01.931Z,4.10
2022-09-13T20:50:05.874Z,5.17
2022-09-13T20:52:09.087Z,5.27
2022-09-13T20:54:13.815Z,4.90
2022-09-13T20:56:18.774Z,4.40
2022-09-13T20:58:22.282Z,4.90
2022-09-13T21:00:26.378Z,6.40
2022-09-13T21:02:29.576Z,6.40
2022-09-13T21:04:34.387Z,5.50
2022-09-13T21:06:40.247Z,5.87
2022-09-13T21:08:43.064Z,5.57
2022-09-13T21:10:56.580Z,5.80
2022-09-13T21:13:01.021Z,4.93
2022-09-13T21:15:04.661Z,5.33
2022-09-13T21:17:08.623Z,5.47
2022-09-13T21:19:12.135Z,5.57
2022-09-13T21:21:20.764Z,6.20
2022-09-13T21:23:24.106Z,4.73
2022-09-13T21:25:27.651Z,5.97
2022-09-13T21:27:30.925Z,6.70
2022-09-13T21:29:34.755Z,6.23
2022-09-13T21:31:38.597Z,5.60
2022-09-13T21:33:41.936Z,6.10
2022-09-13T21:35:45.360Z,5.50
2022-09-13T21:37:49.961Z,5.77
2022-09-13T21:39:53.292Z,5.77
2022-09-13T21:41:56.649Z,5.73
2022-09-13T21:43:59.864Z,6.13
2022-09-13T21:46:05.235Z,5.70
2022-09-13T21:48:09.058Z,6.23
2022-09-13T21:50:12.410Z,6.80
2022-09-13T21:52:15.660Z,5.37
2022-09-13T21:54:21.384Z,5.60
2022-09-13T21:56:26.135Z,6.33
2022-09-13T21:58:29.436Z,5.90
2022-09-13T22:00:33.657Z,5.20
2022-09-13T22:02:36.899Z,6.00
2022-09-13T22:04:40.411Z,5.53
2022-09-13T22:06:44.012Z,6.10
2022-09-13T22:08:48.996Z,5.87
2022-09-13T22:10:53.868Z,7.07
2022-09-13T22:12:57.113Z,7.20
2022-09-13T22:15:00.274Z,6.53
2022-09-13T22:17:03.848Z,6.30
2022-09-13T22:19:09.604Z,6.20
2022-09-13T22:21:15.667Z,6.87
2022-09-13T22:23:18.867Z,6.30
2022-09-13T22:25:22.183Z,6.87
2022-09-13T22:27:27.175Z,9.33
2022-09-13T22:29:30.729Z,5.97
2022-09-13T22:31:36.214Z,5.47
2022-09-13T22:33:40.381Z,5.50
2022-09-13T22:35:43.776Z,5.80
2022-09-13T22:37:47.010Z,7.33
2022-09-13T22:39:50.444Z,6.30
2022-09-13T22:41:53.867Z,5.37
2022-09-13T22:43:59.702Z,6.60
2022-09-13T22:46:04.211Z,5.70
2022-09-13T22:48:10.664Z,6.93
2022-09-13T22:50:15.767Z,5.90
2022-09-13T22:52:18.951Z,6.80
2022-09-13T22:54:22.230Z,6.20
2022-09-13T22:56:28.161Z,6.03
2022-09-13T22:58:31.606Z,6.20
2022-09-13T23:00:36.212Z,7.53
2022-09-13T23:02:42.895Z,6.30
2022-09-13T23:04:48.383Z,5.70
2022-09-13T23:06:51.605Z,6.90
2022-09-13T23:08:56.789Z,5.80
2022-09-13T23:11:10.185Z,7.37
2022-09-13T23:13:13.409Z,6.20
2022-09-13T23:15:16.817Z,6.43
2022-09-13T23:17:21.767Z,5.67
2022-09-13T23:19:28.030Z,5.80
2022-09-13T23:21:32.629Z,7.10
2022-09-13T23:23:35.836Z,6.07
2022-09-13T23:25:39.143Z,6.13
2022-09-13T23:27:42.314Z,6.60
2022-09-13T23:29:46.982Z,6.20
2022-09-13T23:31:51.960Z,5.70
2022-09-13T23:33:59.677Z,6.67
2022-09-13T23:36:03.059Z,6.30
2022-09-13T23:38:06.728Z,6.20
2022-09-13T23:40:10.786Z,5.83
2022-09-13T23:42:15.508Z,6.00
2022-09-13T23:44:19.161Z,6.93
2022-09-13T23:46:23.204Z,5.43
2022-09-13T23:48:26.757Z,6.30
2022-09-13T23:50:31.303Z,5.70
2022-09-13T23:52:34.468Z,5.90
2022-09-13T23:54:37.668Z,6.17
2022-09-13T23:56:41.048Z,6.40
2022-09-13T23:58:44.663Z,5.87
